Wednesday, September 17, 2014
23:44 UTC
  |  Log In   |  Register Free
Airport Search:

Julian Carroll Airport
(KJKL)

Julian Carroll Airport Diagram
No Airport Diagram Available

FAA data valid effective July 24, 2014 until September 18, 2014 (unless otherwise noted).

 
 
 
 
 
 
 
 
 
 
 
 
 
 

Current Aviation Weather for Julian Carroll Airport (KJKL)

The most recent METAR observation for KJKL was updated at: 2314
METAR Summary (Translated METAR)
KJKL
172253Z AUTO 00000KT 10SM CLR 19/11 A2998 RMK AO2 SLP146 T01890111
KIOB
172255Z AUTO 00000KT 10SM SCT039 19/12 A2999 RMK AO2
(42 nm NW from KJKL)
KLOZ
172253Z AUTO 04004KT 10SM CLR 21/12 A2998 RMK AO2 SLP143 T02110122
(47.3 nm SW from KJKL)
TAF Summary (Translated TAF)
KJKL
171740Z 1718/1818 VRB03KT P6SM SCT025 BKN040 FM180800 00000KT 2SM BR SCT005 BKN025 FM181400 VRB04KT P6SM SCT025 BKN050
KLOZ
(47.3 nm SW from KJKL)
171740Z 1718/1818 VRB03KT P6SM BKN025 TEMPO 1718/1720 SCT030 FM172000 33005KT P6SM SCT025 BKN040 FM180600 00000KT 2SM BR SCT005 BKN025 FM180900 00000KT 1/2SM FG BKN005 FM181400 VRB04KT P6SM SCT025 BKN050
  Airport Weather Conditions for KJKL

 Current Weather at JKL
66° F
Fair
North winds at 0.0 mph
JKL NOAA Radar

Pressure: 29.98 in
Humidity: 61%
Wind: Calm
Dew Point: 52.0°F
Visibility: 10.00 mi


Airport Weather Forecast for KJKL

Translated METAR and TAF for KJKL
Translated METAR for KJKL (2338 UTC 17 September 2014)
found at http://aviationweather.gov/adds/metars/
 
METAR text: KJKL 172253Z AUTO 00000KT 10SM CLR 19/11 A2998 RMK AO2 SLP146 T01890111
Conditions at: KJKL (NOCTOR/JACKSON , KY, US) observed 2253 UTC 17 September 2014
Temperature: 18.9°C (66°F)
Dewpoint: 11.1°C (52°F) [RH = 61%]
Pressure (altimeter): 29.98 inches Hg (1015.3 mb)
[Sea-level pressure: 1014.6 mb]
Winds: calm
Visibility: 10 or more miles (16+ km)
Ceiling: at least 12,000 feet AGL
Clouds: sky clear below 12,000 feet AGL
Weather: automated observation with no human augmentation;
there may or may not be significant weather present at this time
Translated TAF for KJKL
Forecast for: KJKL (NOCTOR/JACKSON , KY, US)
TAF Text: KJKL 172336Z 1800/1824 VRB03KT P6SM FEW040 SCT250
Forecast period: 0000 to 0600 UTC 18 September 2014
Forecast type: FROM: standard forecast or significant change
Winds: variable direction winds at 3 MPH (3 knots; 1.6 m/s)
Visibility: 6 or more miles (10+ km)
Clouds: few clouds at 4000 feet AGL
scattered clouds at 25000 feet AGL
Weather: no significant weather forecast for this period
TAF Text: FM180600 00000KT 6SM BR BKN080
Forecast period: 0600 to 1000 UTC 18 September 2014
Forecast type: FROM: standard forecast or significant change
Winds: calm
Visibility: 6 miles (10 km)
Ceiling: 8000 feet AGL
Clouds: broken clouds at 8000 feet AGL
Weather: BR  (mist)
TAF Text: FM181000 00000KT 4SM BR FEW002 SCT080
Forecast period: 1000 to 1400 UTC 18 September 2014
Forecast type: FROM: standard forecast or significant change
Winds: calm
Visibility: 4 miles (6 km)
Clouds: few clouds at 200 feet AGL
scattered clouds at 8000 feet AGL
Weather: BR  (mist)
TAF Text: FM181400 VRB04KT P6SM SCT025 BKN050
Forecast period: 1400 UTC 18 September 2014 to 0000 UTC 19 September 2014
Forecast type: FROM: standard forecast or significant change
Winds: variable direction winds at 5 MPH (4 knots; 2.1 m/s)
Visibility: 6 or more miles (10+ km)
Ceiling: 5000 feet AGL
Clouds: scattered clouds at 2500 feet AGL
broken clouds at 5000 feet AGL
Weather: no significant weather forecast for this period

Find All Airport Services Find A Hotel Find A Rental Car Find A Golf Course Find A Restaurant $100 Hamburger



FBO's on the Field
FBO Company Facility Photos Services Transportation Aviation Fuel Prices: Prices include tax
Catering Weather Repair Courtesy Rental Type 100LL JetA JetA+ MOGAS 8087
 
Julian Carroll Airport

This FBO has not yet been rated
FS:Independent
Last Updated: Aug-26
Login to update fuel prices
SS:
Contact Julian Carroll AirportMore FBO Information
 
Add another FBO Facility Photos Catering Weather Repair Courtesy Rental Type 100LL JetA JetA+ MOGAS 8087
Services Transportation Aviation Fuel Prices: Prices include tax


model-print
model-print
model-print
model-print